Time;durP1;ratioP1;P1;durP2;ratioP2;P2;SDS_P1;SDS_P2;PMS_P1;PMS_P2;Temp;Humidity;BMP_temperature;BMP_pressure;BME280_temperature;BME280_humidity;BME280_pressure;Samples;Min_cycle;Max_cycle;Signal;HPM_P1;HPM_P2
2023/11/15 00:02:21;;;;;;;16.98;7.07;;;8.70;99.90;;;;;;5030963;28;20021;-79
2023/11/15 00:04:46;;;;;;;17.40;7.15;;;8.70;99.90;;;;;;5030342;28;20043;-77
2023/11/15 00:07:13;;;;;;;15.18;6.47;;;8.50;99.90;;;;;;5029935;28;20022;-76
2023/11/15 00:09:38;;;;;;;18.88;7.05;;;8.50;99.90;;;;;;5037414;28;20374;-77
2023/11/15 00:12:04;;;;;;;15.80;6.88;;;8.40;99.90;;;;;;5037522;28;20022;-78
2023/11/15 00:14:30;;;;;;;17.80;6.88;;;8.50;99.90;;;;;;5037055;28;20124;-78
2023/11/15 00:16:56;;;;;;;16.75;7.28;;;8.50;99.90;;;;;;5036389;28;20128;-78
2023/11/15 00:19:23;;;;;;;13.05;5.82;;;8.50;99.90;;;;;;5030366;28;20022;-76
2023/11/15 00:21:49;;;;;;;19.88;6.03;;;8.40;99.90;;;;;;5036630;28;20022;-78
2023/11/15 00:24:15;;;;;;;13.85;5.10;;;8.40;99.90;;;;;;5029794;28;20121;-78
2023/11/15 00:26:41;;;;;;;20.55;5.13;;;8.40;99.90;;;;;;5029740;28;20089;-77
2023/11/15 00:29:07;;;;;;;15.13;4.97;;;8.40;99.90;;;;;;5029924;28;20025;-77
2023/11/15 00:31:32;;;;;;;11.68;4.43;;;8.40;99.90;;;;;;5030687;28;20025;-75
2023/11/15 00:33:58;;;;;;;15.35;5.10;;;8.40;99.90;;;;;;5037117;28;20034;-78
2023/11/15 00:36:24;;;;;;;9.30;4.10;;;8.30;99.90;;;;;;5030172;28;20053;-77
2023/11/15 00:38:50;;;;;;;12.00;4.18;;;8.30;99.90;;;;;;5030586;28;20021;-78
2023/11/15 00:41:19;;;;;;;11.73;4.30;;;8.30;99.90;;;;;;5036938;28;20021;-78
2023/11/15 00:43:44;;;;;;;7.78;3.70;;;8.20;99.90;;;;;;5045597;28;20033;-78
2023/11/15 00:46:13;;;;;;;17.85;3.72;;;8.20;99.90;;;;;;5030711;28;20037;-77
2023/11/15 00:48:42;;;;;;;8.88;3.40;;;8.10;99.90;;;;;;5030497;28;20029;-77
2023/11/15 00:51:07;;;;;;;8.63;3.35;;;8.20;99.90;;;;;;5046003;28;20083;-77
2023/11/15 00:53:34;;;;;;;11.38;3.50;;;8.20;99.90;;;;;;5030577;28;20465;-76
2023/11/15 00:56:00;;;;;;;9.30;3.00;;;8.20;99.90;;;;;;5030065;28;20075;-77
2023/11/15 00:58:38;;;;;;;10.75;3.30;;;8.10;99.90;;;;;;5030855;28;20079;-78
2023/11/15 01:01:06;;;;;;;14.88;4.40;;;8.10;99.90;;;;;;5030413;28;20109;-77
2023/11/15 01:03:32;;;;;;;13.13;4.40;;;8.10;99.90;;;;;;5030068;28;20124;-78
2023/11/15 01:06:00;;;;;;;8.77;3.97;;;8.10;99.90;;;;;;5030609;28;20042;-78
2023/11/15 01:08:25;;;;;;;12.65;3.95;;;8.10;99.90;;;;;;5029985;28;20025;-78
2023/11/15 01:10:57;;;;;;;7.30;3.58;;;8.10;99.90;;;;;;5036291;28;20075;-76
2023/11/15 01:13:23;;;;;;;9.85;3.78;;;8.10;99.90;;;;;;5030062;28;20026;-76
2023/11/15 01:15:50;;;;;;;8.45;3.28;;;8.10;99.90;;;;;;5028033;28;20096;-77
2023/11/15 01:18:16;;;;;;;10.00;3.58;;;8.10;99.90;;;;;;5030500;28;20052;-78
2023/11/15 01:20:43;;;;;;;16.10;3.80;;;8.20;99.90;;;;;;5028713;28;20383;-78
2023/11/15 01:23:09;;;;;;;8.70;3.70;;;8.10;99.90;;;;;;5030008;28;20018;-77
2023/11/15 01:25:36;;;;;;;8.07;3.38;;;8.10;99.90;;;;;;5030082;28;20018;-75
2023/11/15 01:28:03;;;;;;;8.57;3.53;;;8.00;99.90;;;;;;5030183;28;20018;-76
2023/11/15 01:30:28;;;;;;;8.48;3.40;;;8.10;99.90;;;;;;5031347;28;20052;-76
2023/11/15 01:32:55;;;;;;;14.93;3.28;;;8.10;99.90;;;;;;5032947;28;20029;-78
2023/11/15 01:35:23;;;;;;;6.00;2.92;;;7.90;99.90;;;;;;5046831;28;20037;-79
2023/11/15 01:37:50;;;;;;;7.97;2.70;;;7.90;99.90;;;;;;5031639;28;20104;-76
2023/11/15 01:40:20;;;;;;;12.45;2.88;;;7.90;99.90;;;;;;5032738;28;20030;-77
2023/11/15 01:42:47;;;;;;;6.18;2.38;;;7.90;99.90;;;;;;5032372;28;21143;-77
2023/11/15 01:45:13;;;;;;;8.40;2.60;;;7.90;99.90;;;;;;5031434;28;20064;-78
2023/11/15 01:47:40;;;;;;;9.27;2.63;;;7.80;99.90;;;;;;5032889;28;20040;-76
2023/11/15 01:50:10;;;;;;;5.70;2.22;;;7.80;99.90;;;;;;5032280;28;20034;-77
2023/11/15 01:52:37;;;;;;;9.20;2.50;;;7.80;99.90;;;;;;5037499;28;20037;-77
2023/11/15 01:55:06;;;;;;;8.98;2.28;;;7.90;99.90;;;;;;5031681;28;20061;-76
2023/11/15 01:57:32;;;;;;;8.20;2.58;;;7.90;99.90;;;;;;5033331;28;20030;-77
2023/11/15 01:59:59;;;;;;;8.93;2.78;;;7.90;99.90;;;;;;5037371;28;20116;-78
2023/11/15 02:02:25;;;;;;;6.97;2.83;;;7.90;99.90;;;;;;5031781;28;20103;-77
2023/11/15 02:04:51;;;;;;;8.63;2.60;;;7.90;99.90;;;;;;5031533;28;20050;-78
2023/11/15 02:07:18;;;;;;;8.90;2.75;;;7.90;99.90;;;;;;5031782;28;20033;-78
2023/11/15 02:09:44;;;;;;;6.03;2.80;;;7.90;99.90;;;;;;5032224;28;20105;-80
2023/11/15 02:12:10;;;;;;;8.48;3.03;;;7.90;99.90;;;;;;5031782;28;20140;-77
2023/11/15 02:14:35;;;;;;;8.70;3.10;;;7.90;99.90;;;;;;5037242;28;20447;-77
2023/11/15 02:17:01;;;;;;;9.25;3.00;;;7.90;99.90;;;;;;5031693;28;20046;-77
2023/11/15 02:19:28;;;;;;;12.82;3.65;;;7.90;99.90;;;;;;5030927;28;20037;-79
2023/11/15 02:21:54;;;;;;;7.90;3.55;;;7.90;99.90;;;;;;5031515;28;20024;-76
2023/11/15 02:24:19;;;;;;;9.98;3.20;;;7.80;99.90;;;;;;5031855;28;20421;-78
2023/11/15 02:26:46;;;;;;;6.32;2.83;;;7.90;99.90;;;;;;5030821;28;20077;-78
2023/11/15 02:29:13;;;;;;;8.07;3.45;;;7.70;99.90;;;;;;5030207;28;20049;-78
2023/11/15 02:31:39;;;;;;;7.07;3.20;;;7.80;99.90;;;;;;5030081;28;20034;-79
2023/11/15 02:34:04;;;;;;;11.88;3.50;;;7.80;99.90;;;;;;5030962;28;20135;-78
2023/11/15 02:36:30;;;;;;;7.43;3.38;;;7.80;99.90;;;;;;5036900;28;20033;-78
2023/11/15 02:38:55;;;;;;;10.73;3.55;;;7.80;99.90;;;;;;5035341;28;20026;-78
2023/11/15 02:41:22;;;;;;;7.57;3.03;;;7.70;99.90;;;;;;5031209;28;20041;-78
2023/11/15 02:43:48;;;;;;;9.23;3.22;;;7.70;99.90;;;;;;5030727;28;20108;-78
2023/11/15 02:46:21;;;;;;;7.55;3.10;;;7.70;99.90;;;;;;5031557;28;21488;-77
2023/11/15 02:48:47;;;;;;;7.80;2.88;;;7.70;99.90;;;;;;5032133;28;20152;-78
2023/11/15 02:51:12;;;;;;;13.27;3.17;;;7.70;99.90;;;;;;5030270;28;20510;-78
2023/11/15 02:53:38;;;;;;;11.88;3.20;;;7.70;99.90;;;;;;5035485;28;20024;-78
2023/11/15 02:56:04;;;;;;;10.93;3.22;;;7.60;99.90;;;;;;5030911;28;20029;-77
2023/11/15 02:58:30;;;;;;;8.75;3.03;;;7.70;99.90;;;;;;5030836;28;20048;-78
2023/11/15 03:00:56;;;;;;;12.38;3.53;;;7.70;99.90;;;;;;5045241;28;20474;-77
2023/11/15 03:03:21;;;;;;;8.98;3.00;;;7.70;99.90;;;;;;5030899;28;20041;-78
2023/11/15 03:05:47;;;;;;;6.22;2.88;;;7.70;99.90;;;;;;5031869;28;20072;-77
2023/11/15 03:08:16;;;;;;;7.80;3.20;;;7.70;99.90;;;;;;5030354;28;20026;-77
2023/11/15 03:10:43;;;;;;;6.10;3.15;;;7.70;99.90;;;;;;5031467;28;20026;-76
2023/11/15 03:13:08;;;;;;;7.13;3.00;;;7.70;99.90;;;;;;5031609;28;20029;-78
2023/11/15 03:15:36;;;;;;;9.80;3.22;;;7.70;99.90;;;;;;5031685;28;20109;-78
2023/11/15 03:18:03;;;;;;;12.05;3.53;;;7.70;99.90;;;;;;5031250;28;20020;-78
2023/11/15 03:20:30;;;;;;;7.65;3.22;;;7.60;99.90;;;;;;5037757;28;20080;-79
2023/11/15 03:22:56;;;;;;;10.52;3.88;;;7.70;99.90;;;;;;5031105;28;20105;-77
2023/11/15 03:25:22;;;;;;;13.40;4.25;;;7.70;99.90;;;;;;5030940;28;20474;-78
2023/11/15 03:27:48;;;;;;;9.18;3.38;;;7.70;99.90;;;;;;5031315;28;20030;-78
2023/11/15 03:30:15;;;;;;;7.90;3.58;;;7.60;99.90;;;;;;5031499;28;20040;-78
2023/11/15 03:32:42;;;;;;;11.10;4.18;;;7.70;99.90;;;;;;5031322;28;20021;-78
2023/11/15 03:35:08;;;;;;;15.10;5.22;;;7.70;99.90;;;;;;5037462;28;20083;-78
2023/11/15 03:37:33;;;;;;;15.45;5.68;;;7.70;99.90;;;;;;5031073;28;20022;-77
2023/11/15 03:39:59;;;;;;;17.25;6.55;;;7.60;99.90;;;;;;5031123;28;20052;-78
2023/11/15 03:42:25;;;;;;;15.18;6.18;;;7.60;99.90;;;;;;5030822;28;20032;-78
2023/11/15 03:44:51;;;;;;;15.63;6.90;;;7.80;99.90;;;;;;5031298;28;20030;-79
2023/11/15 03:47:19;;;;;;;13.38;5.75;;;7.70;99.90;;;;;;5031353;28;20073;-78
2023/11/15 03:49:45;;;;;;;10.98;5.38;;;7.70;99.90;;;;;;5035059;28;20124;-78
2023/11/15 03:52:10;;;;;;;14.75;5.95;;;7.80;99.90;;;;;;5030907;28;20035;-78
2023/11/15 03:54:36;;;;;;;15.10;4.85;;;7.70;99.90;;;;;;5030657;28;20022;-78
2023/11/15 03:57:04;;;;;;;13.45;6.55;;;7.70;99.90;;;;;;5031053;28;20025;-78
2023/11/15 03:59:29;;;;;;;14.68;6.40;;;7.70;99.90;;;;;;5031159;28;20030;-78
2023/11/15 04:01:55;;;;;;;15.93;6.18;;;7.60;99.90;;;;;;5030238;28;20048;-79
2023/11/15 04:04:21;;;;;;;17.45;6.55;;;7.60;99.90;;;;;;5030908;28;20068;-78
2023/11/15 04:06:48;;;;;;;12.48;4.95;;;7.60;99.90;;;;;;5030412;28;20030;-78
2023/11/15 04:09:13;;;;;;;16.20;4.85;;;7.60;99.90;;;;;;5028383;28;20028;-78
2023/11/15 04:11:40;;;;;;;16.17;5.93;;;7.70;99.90;;;;;;5030218;28;20086;-78
2023/11/15 04:14:06;;;;;;;12.90;5.10;;;7.50;99.90;;;;;;5030621;28;20037;-78
2023/11/15 04:16:31;;;;;;;11.32;5.25;;;7.60;99.90;;;;;;5030470;28;20406;-77
2023/11/15 04:18:58;;;;;;;10.52;4.47;;;7.50;99.90;;;;;;5030661;28;20723;-77
2023/11/15 04:21:24;;;;;;;13.85;4.40;;;7.50;99.90;;;;;;5030476;28;20021;-78
2023/11/15 04:23:52;;;;;;;9.93;4.47;;;7.50;99.90;;;;;;5029122;28;20025;-77
2023/11/15 04:26:19;;;;;;;9.25;3.97;;;7.40;99.90;;;;;;5030616;28;20041;-79
2023/11/15 04:28:45;;;;;;;12.52;4.15;;;7.50;99.90;;;;;;5029958;28;20025;-79
2023/11/15 04:31:11;;;;;;;11.55;4.13;;;7.50;99.90;;;;;;5034454;28;20056;-78
2023/11/15 04:33:36;;;;;;;14.23;4.60;;;7.50;99.90;;;;;;5034277;28;20041;-78
2023/11/15 04:36:03;;;;;;;14.05;4.15;;;7.50;99.90;;;;;;5030221;28;20026;-78
2023/11/15 04:38:29;;;;;;;12.18;4.63;;;7.50;99.90;;;;;;5029604;28;20025;-78
2023/11/15 04:40:55;;;;;;;12.40;4.90;;;7.60;99.90;;;;;;5030598;28;20018;-78
2023/11/15 04:43:23;;;;;;;12.30;4.60;;;7.50;99.90;;;;;;5031528;28;20084;-78
2023/11/15 04:45:50;;;;;;;10.27;4.57;;;7.60;99.90;;;;;;5034073;28;20022;-78
2023/11/15 04:48:16;;;;;;;13.20;4.57;;;7.60;99.90;;;;;;5030215;28;20018;-78
2023/11/15 04:50:41;;;;;;;15.15;5.60;;;7.50;99.90;;;;;;5030067;28;20036;-78
2023/11/15 04:53:08;;;;;;;14.48;5.72;;;7.60;99.90;;;;;;5029955;28;20076;-76
2023/11/15 04:55:34;;;;;;;20.98;5.78;;;7.60;99.90;;;;;;5029665;28;20018;-77
2023/11/15 04:58:00;;;;;;;11.95;5.18;;;7.60;99.90;;;;;;5030718;28;20034;-78
2023/11/15 05:00:26;;;;;;;13.07;5.10;;;7.60;99.90;;;;;;5030075;28;20034;-77
2023/11/15 05:02:52;;;;;;;13.82;5.72;;;7.50;99.90;;;;;;5030742;28;20467;-77
2023/11/15 05:05:19;;;;;;;13.68;5.20;;;7.50;99.90;;;;;;5032859;28;20042;-78
2023/11/15 05:07:45;;;;;;;18.10;5.65;;;7.60;99.90;;;;;;5033923;28;20029;-78
2023/11/15 05:10:11;;;;;;;13.45;5.22;;;7.70;99.90;;;;;;5032687;28;20021;-78
2023/11/15 05:12:37;;;;;;;13.82;5.57;;;7.60;99.90;;;;;;5033187;28;20548;-78
2023/11/15 05:15:04;;;;;;;13.77;5.60;;;7.50;99.90;;;;;;5037932;28;20044;-78
2023/11/15 05:17:30;;;;;;;16.02;5.30;;;7.60;99.90;;;;;;5034228;28;20030;-77
2023/11/15 05:19:56;;;;;;;11.13;4.88;;;7.60;99.90;;;;;;5033044;28;20118;-77
2023/11/15 05:22:22;;;;;;;16.02;4.85;;;7.60;99.90;;;;;;5038975;28;20026;-77
2023/11/15 05:24:47;;;;;;;12.43;5.70;;;7.60;99.90;;;;;;5033590;28;20037;-78
2023/11/15 05:27:13;;;;;;;11.50;5.05;;;7.60;99.90;;;;;;5032082;28;20117;-77
2023/11/15 05:29:39;;;;;;;16.73;5.38;;;7.60;99.90;;;;;;5032641;28;20044;-77
2023/11/15 05:32:05;;;;;;;12.02;4.63;;;7.60;99.90;;;;;;5033247;28;20034;-77
2023/11/15 05:34:31;;;;;;;12.27;5.32;;;7.50;99.90;;;;;;5031893;28;20030;-77
2023/11/15 05:36:56;;;;;;;17.83;5.10;;;7.50;99.90;;;;;;5036826;28;20034;-78
2023/11/15 05:39:22;;;;;;;9.10;4.78;;;7.50;99.90;;;;;;5033597;28;20021;-77
2023/11/15 05:41:48;;;;;;;10.50;4.80;;;7.40;99.90;;;;;;5032319;28;20026;-77
2023/11/15 05:44:15;;;;;;;17.63;5.15;;;7.50;99.90;;;;;;5032386;28;20037;-77
2023/11/15 05:46:40;;;;;;;12.32;4.65;;;7.40;99.90;;;;;;5032637;28;20032;-77
2023/11/15 05:49:06;;;;;;;10.35;4.97;;;7.40;99.90;;;;;;5033016;28;20066;-77
2023/11/15 05:51:33;;;;;;;14.95;5.03;;;7.50;99.90;;;;;;5033090;28;20037;-78
2023/11/15 05:54:05;;;;;;;9.45;4.88;;;7.40;99.90;;;;;;5031823;28;20084;-78
2023/11/15 05:56:33;;;;;;;16.52;5.13;;;7.50;99.90;;;;;;5037581;28;20057;-80
2023/11/15 05:58:59;;;;;;;14.25;4.68;;;7.50;99.90;;;;;;5033358;28;20022;-80
2023/11/15 06:01:25;;;;;;;11.98;4.97;;;7.50;99.90;;;;;;5038225;28;20371;-78
2023/11/15 06:03:51;;;;;;;16.05;4.72;;;7.50;99.90;;;;;;5039336;28;20038;-81
2023/11/15 06:06:17;;;;;;;12.80;5.07;;;7.50;99.90;;;;;;5040083;28;20389;-81
2023/11/15 06:08:46;;;;;;;13.40;5.50;;;7.50;99.90;;;;;;5047815;28;20060;-82
2023/11/15 06:11:12;;;;;;;10.85;5.15;;;7.50;99.90;;;;;;5039528;28;20052;-80
2023/11/15 06:13:38;;;;;;;12.60;5.22;;;7.50;99.90;;;;;;5033028;28;20476;-79
2023/11/15 06:16:07;;;;;;;14.00;5.22;;;7.60;99.90;;;;;;5031156;28;20065;-80
2023/11/15 06:18:33;;;;;;;13.55;4.75;;;7.60;99.90;;;;;;5030321;28;20022;-80
2023/11/15 06:20:58;;;;;;;15.25;4.82;;;7.60;99.90;;;;;;5032322;28;20032;-79
2023/11/15 06:23:24;;;;;;;10.18;5.05;;;7.50;99.90;;;;;;5032536;28;20033;-78
2023/11/15 06:25:50;;;;;;;11.93;4.85;;;7.60;99.90;;;;;;5031756;28;20044;-78
2023/11/15 06:28:16;;;;;;;16.27;5.07;;;7.60;99.90;;;;;;5032604;28;20060;-81
2023/11/15 06:30:45;;;;;;;13.93;4.40;;;7.50;99.90;;;;;;5032512;28;20026;-83
2023/11/15 06:33:11;;;;;;;15.38;4.22;;;7.50;99.90;;;;;;5031457;28;20468;-79
2023/11/15 06:35:37;;;;;;;9.38;4.35;;;7.70;99.90;;;;;;5030912;28;20093;-79
2023/11/15 06:38:02;;;;;;;15.23;4.63;;;7.70;99.90;;;;;;5032480;28;20018;-81
2023/11/15 06:40:28;;;;;;;16.23;4.45;;;7.70;99.90;;;;;;5039335;28;20022;-80
2023/11/15 06:42:54;;;;;;;14.25;4.72;;;7.60;99.90;;;;;;5032152;28;20053;-80
2023/11/15 06:45:19;;;;;;;13.80;4.47;;;7.60;99.90;;;;;;5032379;28;20097;-79
2023/11/15 06:47:45;;;;;;;8.63;3.95;;;7.60;99.90;;;;;;5032470;28;20083;-80
2023/11/15 06:50:12;;;;;;;8.13;4.05;;;7.60;99.90;;;;;;5030788;28;20056;-78
2023/11/15 06:52:38;;;;;;;12.32;4.25;;;7.60;99.90;;;;;;5032076;28;20391;-81
2023/11/15 06:55:10;;;;;;;10.18;4.55;;;7.60;99.90;;;;;;5037977;28;20029;-83
2023/11/15 06:57:41;;;;;;;9.63;4.50;;;7.70;99.90;;;;;;5047378;28;20032;-80
2023/11/15 07:00:11;;;;;;;11.32;4.70;;;7.70;99.90;;;;;;5030543;28;20037;-80
2023/11/15 07:02:37;;;;;;;11.52;5.22;;;7.70;99.90;;;;;;5031841;28;20026;-81
2023/11/15 07:05:05;;;;;;;11.45;5.28;;;7.80;99.90;;;;;;5046524;28;20090;-80
2023/11/15 07:07:31;;;;;;;12.07;5.50;;;7.70;99.90;;;;;;5031417;28;20026;-81
2023/11/15 07:09:56;;;;;;;13.88;5.65;;;7.80;99.90;;;;;;5038067;28;20045;-80
2023/11/15 07:12:23;;;;;;;17.55;6.47;;;7.70;99.90;;;;;;5032468;28;20022;-80
2023/11/15 07:14:51;;;;;;;11.20;5.30;;;7.70;99.90;;;;;;5029799;28;20665;-81
2023/11/15 07:17:19;;;;;;;13.90;6.75;;;7.70;99.90;;;;;;5030099;28;20041;-80
2023/11/15 07:19:50;;;;;;;14.23;6.38;;;7.70;99.90;;;;;;5031616;28;20029;-81
2023/11/15 07:22:16;;;;;;;15.60;6.68;;;7.70;99.90;;;;;;5029325;28;20018;-80
2023/11/15 07:24:42;;;;;;;13.18;5.68;;;7.80;99.90;;;;;;5030874;28;20188;-80
2023/11/15 07:27:09;;;;;;;13.48;5.60;;;7.70;99.90;;;;;;5032168;28;20029;-80
2023/11/15 07:29:36;;;;;;;14.80;6.70;;;7.70;99.90;;;;;;5035590;28;20034;-80
2023/11/15 07:32:03;;;;;;;21.25;5.78;;;7.70;99.90;;;;;;5037221;28;20026;-81
2023/11/15 07:34:29;;;;;;;19.85;6.13;;;7.70;99.90;;;;;;5031187;28;20022;-79
2023/11/15 07:36:58;;;;;;;16.35;6.30;;;7.80;99.90;;;;;;5031005;28;20041;-77
2023/11/15 07:39:24;;;;;;;13.25;6.25;;;7.90;99.90;;;;;;5046790;28;20037;-79
2023/11/15 07:41:51;;;;;;;16.90;6.47;;;7.90;99.90;;;;;;5031634;28;20109;-78
2023/11/15 07:44:19;;;;;;;12.13;5.93;;;7.90;99.90;;;;;;5031031;28;20041;-79
2023/11/15 07:46:52;;;;;;;13.23;5.97;;;7.80;99.90;;;;;;5029854;28;20087;-80
2023/11/15 07:49:18;;;;;;;17.00;8.68;;;7.80;99.90;;;;;;5029646;28;20032;-78
2023/11/15 07:51:47;;;;;;;12.60;6.78;;;7.80;99.90;;;;;;5037554;28;20055;-79
2023/11/15 07:54:15;;;;;;;12.77;6.03;;;7.80;99.90;;;;;;5031020;28;20018;-79
2023/11/15 07:56:45;;;;;;;14.00;6.47;;;7.80;99.90;;;;;;5031417;28;20041;-79
2023/11/15 07:59:11;;;;;;;17.88;6.10;;;7.90;99.90;;;;;;5028816;28;20021;-80
2023/11/15 08:01:38;;;;;;;10.73;6.13;;;8.20;99.90;;;;;;5031211;28;20053;-79
2023/11/15 08:04:06;;;;;;;14.05;5.57;;;8.20;99.90;;;;;;5037772;28;20033;-79
2023/11/15 08:06:33;;;;;;;15.38;5.05;;;8.50;99.90;;;;;;5030773;28;20029;-79
2023/11/15 08:08:59;;;;;;;10.77;5.00;;;8.60;99.90;;;;;;5037191;28;20049;-80
2023/11/15 08:11:25;;;;;;;10.88;4.80;;;8.70;99.90;;;;;;5030529;28;20034;-77
2023/11/15 08:13:53;;;;;;;10.38;4.68;;;8.60;99.90;;;;;;5029407;28;20041;-78
2023/11/15 08:19:06;;;;;;;9.07;4.63;;;8.80;99.90;;;;;;5029124;28;20661;-76
2023/11/15 08:21:31;;;;;;;9.23;4.72;;;9.20;99.90;;;;;;5035144;28;20368;-76
2023/11/15 08:23:57;;;;;;;10.18;5.20;;;9.60;99.90;;;;;;5029273;28;20045;-77
2023/11/15 08:26:22;;;;;;;11.40;4.78;;;9.90;99.90;;;;;;5030620;28;20033;-78
2023/11/15 08:28:48;;;;;;;9.52;5.18;;;10.10;99.90;;;;;;5031428;28;20034;-77
2023/11/15 08:31:23;;;;;;;17.25;4.75;;;10.20;99.90;;;;;;5031473;28;20033;-78
2023/11/15 08:33:49;;;;;;;5.70;3.78;;;10.20;99.90;;;;;;5030510;28;20042;-79
2023/11/15 08:36:14;;;;;;;7.95;4.22;;;10.20;99.90;;;;;;5034981;28;20506;-79
2023/11/15 08:38:40;;;;;;;9.30;3.85;;;10.20;99.90;;;;;;5030849;28;20025;-78
2023/11/15 08:41:06;;;;;;;10.45;4.60;;;10.10;99.90;;;;;;5032373;28;20551;-78
2023/11/15 08:43:31;;;;;;;11.57;4.30;;;9.90;99.90;;;;;;5033886;28;20044;-77
2023/11/15 08:45:57;;;;;;;10.82;4.80;;;9.80;99.90;;;;;;5033055;28;20037;-78
2023/11/15 08:48:23;;;;;;;11.00;5.43;;;9.90;99.90;;;;;;5034320;28;20018;-78
2023/11/15 08:50:49;;;;;;;9.45;5.20;;;9.90;99.90;;;;;;5038465;28;20033;-78
2023/11/15 08:53:16;;;;;;;16.85;5.28;;;9.90;99.90;;;;;;5040072;28;20038;-78
2023/11/15 08:55:45;;;;;;;15.15;5.70;;;9.90;99.90;;;;;;5049244;28;20131;-79
2023/11/15 08:58:14;;;;;;;12.55;5.80;;;9.80;99.90;;;;;;5033976;28;20041;-79
2023/11/15 09:00:40;;;;;;;13.95;5.25;;;9.80;99.90;;;;;;5034601;28;20470;-77
2023/11/15 09:03:06;;;;;;;10.10;5.53;;;9.70;99.90;;;;;;5034033;28;20403;-77
2023/11/15 09:05:33;;;;;;;8.52;5.13;;;9.70;99.90;;;;;;5033519;28;20021;-78
2023/11/15 09:08:00;;;;;;;16.45;6.70;;;9.70;99.90;;;;;;5033510;28;20032;-79
2023/11/15 09:10:27;;;;;;;14.85;7.35;;;9.70;99.90;;;;;;5032815;28;20036;-77
2023/11/15 09:12:55;;;;;;;22.52;7.97;;;9.50;99.90;;;;;;5040380;28;20021;-77
2023/11/15 09:15:22;;;;;;;36.15;8.27;;;9.40;99.90;;;;;;5035882;28;20092;-78
2023/11/15 09:17:50;;;;;;;49.35;8.77;;;9.10;99.90;;;;;;5034496;28;20371;-77
2023/11/15 09:20:21;;;;;;;17.85;8.35;;;9.00;99.90;;;;;;5032343;28;20030;-76
2023/11/15 09:22:53;;;;;;;23.05;8.80;;;8.90;99.90;;;;;;5033887;28;20018;-79
2023/11/15 09:25:22;;;;;;;15.73;8.75;;;8.70;99.90;;;;;;5040424;28;20037;-78
2023/11/15 09:27:49;;;;;;;20.40;8.32;;;8.70;99.90;;;;;;5048858;28;20101;-77
2023/11/15 09:30:14;;;;;;;16.58;8.55;;;8.60;99.90;;;;;;5033015;28;20022;-77
2023/11/15 09:32:41;;;;;;;20.60;9.30;;;8.50;99.90;;;;;;5033812;28;20037;-78
2023/11/15 09:35:10;;;;;;;24.27;9.70;;;8.70;99.90;;;;;;5040404;28;20041;-78
2023/11/15 09:37:39;;;;;;;25.92;8.90;;;8.60;99.90;;;;;;5039983;28;20069;-78
2023/11/15 09:40:11;;;;;;;19.20;9.65;;;8.50;99.90;;;;;;5032115;28;20014;-76
2023/11/15 09:42:42;;;;;;;25.55;9.70;;;8.50;99.90;;;;;;5033202;28;20121;-77
2023/11/15 09:45:13;;;;;;;24.08;10.27;;;8.40;99.90;;;;;;5038585;28;20041;-78
2023/11/15 09:47:40;;;;;;;19.67;9.35;;;8.50;99.90;;;;;;5033687;28;20112;-76
2023/11/15 09:50:09;;;;;;;22.38;9.98;;;8.50;99.90;;;;;;5031927;28;20040;-76
2023/11/15 09:52:38;;;;;;;17.08;8.10;;;8.40;99.90;;;;;;5033281;28;20029;-76
2023/11/15 09:55:05;;;;;;;19.40;9.27;;;8.40;99.90;;;;;;5032232;28;20153;-77
2023/11/15 09:57:31;;;;;;;16.48;7.63;;;8.40;99.90;;;;;;5033240;28;20107;-77
2023/11/15 09:59:56;;;;;;;17.60;8.07;;;8.40;99.90;;;;;;5032101;28;20037;-77
2023/11/15 10:02:23;;;;;;;14.50;7.18;;;8.40;99.90;;;;;;5033281;28;20029;-77
2023/11/15 10:05:19;;;;;;;16.05;7.10;;;8.40;99.90;;;;;;5039458;28;20052;-79
2023/11/15 10:07:51;;;;;;;14.23;6.72;;;8.40;99.90;;;;;;5040068;28;20033;-78
2023/11/15 10:10:19;;;;;;;15.02;6.80;;;8.40;99.90;;;;;;5039825;28;20026;-77
2023/11/15 10:12:46;;;;;;;15.63;7.20;;;8.50;99.90;;;;;;5047783;28;20524;-77
2023/11/15 10:15:13;;;;;;;13.85;6.57;;;8.50;99.90;;;;;;5032818;28;20081;-75
2023/11/15 10:17:45;;;;;;;15.77;6.60;;;8.50;99.90;;;;;;5032714;28;20025;-78
2023/11/15 10:20:18;;;;;;;16.15;6.88;;;8.50;99.90;;;;;;5035364;28;20037;-78
2023/11/15 10:22:46;;;;;;;14.90;7.33;;;8.50;99.90;;;;;;5034286;28;20025;-79
2023/11/15 10:25:13;;;;;;;15.65;7.57;;;8.50;99.90;;;;;;5031140;28;20037;-78
2023/11/15 10:27:42;;;;;;;15.35;7.38;;;8.50;99.90;;;;;;5031778;28;20026;-76
2023/11/15 10:30:15;;;;;;;17.73;8.00;;;8.50;99.90;;;;;;5031985;28;20049;-76
2023/11/15 10:32:44;;;;;;;15.97;7.50;;;8.50;99.90;;;;;;5037341;28;20029;-78
2023/11/15 10:35:11;;;;;;;16.85;8.43;;;8.60;99.90;;;;;;5032789;28;20034;-75
2023/11/15 10:37:51;;;;;;;14.82;7.43;;;8.60;99.90;;;;;;5038422;28;20045;-76
2023/11/15 10:40:21;;;;;;;18.35;8.13;;;8.70;99.90;;;;;;5032233;28;20366;-78
2023/11/15 10:42:52;;;;;;;18.95;8.20;;;8.80;99.90;;;;;;5035888;28;20037;-77
2023/11/15 10:45:22;;;;;;;20.85;7.78;;;8.90;99.90;;;;;;5031863;28;20040;-77
2023/11/15 10:48:08;;;;;;;13.85;7.05;;;8.90;99.90;;;;;;5032453;28;20046;-78
2023/11/15 10:50:41;;;;;;;16.75;7.85;;;9.10;99.90;;;;;;5030718;28;20093;-77
2023/11/15 10:53:10;;;;;;;13.68;7.18;;;8.90;99.90;;;;;;5038464;28;20044;-74
2023/11/15 10:55:38;;;;;;;13.60;7.10;;;9.10;99.90;;;;;;5038556;28;20061;-75
2023/11/15 10:58:05;;;;;;;13.13;6.55;;;9.00;99.90;;;;;;5031886;28;20018;-76
2023/11/15 11:00:35;;;;;;;13.20;6.63;;;8.90;99.90;;;;;;5031748;28;20029;-77
2023/11/15 11:03:08;;;;;;;13.85;6.95;;;9.10;99.90;;;;;;5032063;28;20026;-77
2023/11/15 11:05:54;;;;;;;13.55;6.97;;;9.20;99.90;;;;;;5029810;28;20041;-76
2023/11/15 11:08:22;;;;;;;17.52;7.43;;;9.10;99.90;;;;;;5030985;28;20128;-77
2023/11/15 11:11:10;;;;;;;16.25;7.05;;;9.10;99.90;;;;;;5037156;28;20025;-77
2023/11/15 11:13:40;;;;;;;15.63;7.63;;;9.10;99.90;;;;;;5030453;28;20033;-75
2023/11/15 11:16:28;;;;;;;20.60;8.43;;;9.10;99.90;;;;;;5030028;28;20224;-74
2023/11/15 11:19:19;;;;;;;16.23;7.22;;;9.10;99.90;;;;;;5031056;28;20048;-75
2023/11/15 11:22:08;;;;;;;11.80;6.28;;;9.30;99.90;;;;;;5033531;28;20102;-77
2023/11/15 11:24:48;;;;;;;17.33;7.65;;;9.40;99.90;;;;;;5026616;28;20076;-77
2023/11/15 11:27:14;;;;;;;14.93;7.38;;;9.60;99.90;;;;;;5029593;28;20428;-76
2023/11/15 11:29:49;;;;;;;14.63;7.00;;;9.70;99.90;;;;;;5030761;28;20048;-75
2023/11/15 11:32:28;;;;;;;12.00;6.18;;;9.80;99.90;;;;;;5031060;28;20627;-76
2023/11/15 11:35:07;;;;;;;15.88;6.93;;;9.90;99.90;;;;;;5029341;28;20459;-78
2023/11/15 11:37:53;;;;;;;13.98;6.35;;;10.10;99.90;;;;;;5036365;28;20025;-78
2023/11/15 11:40:28;;;;;;;11.77;5.63;;;10.20;99.90;;;;;;5029613;28;20033;-76
2023/11/15 11:43:11;;;;;;;13.00;5.60;;;10.20;99.90;;;;;;5028719;28;20061;-75
2023/11/15 11:45:37;;;;;;;14.23;6.28;;;10.20;99.90;;;;;;5030246;28;20038;-75
2023/11/15 11:48:03;;;;;;;13.55;5.95;;;10.10;99.90;;;;;;5044915;28;20367;-75
2023/11/15 11:50:29;;;;;;;13.75;6.30;;;10.10;99.90;;;;;;5028874;28;20052;-76
2023/11/15 11:52:55;;;;;;;15.68;6.50;;;10.10;99.90;;;;;;5030440;28;20048;-74
2023/11/15 11:55:22;;;;;;;12.02;6.28;;;10.10;99.90;;;;;;5030402;28;20084;-75
2023/11/15 11:57:49;;;;;;;16.58;6.68;;;10.00;99.90;;;;;;5030826;28;20026;-75
2023/11/15 12:00:16;;;;;;;17.23;6.47;;;10.00;99.90;;;;;;5030509;28;20494;-76
2023/11/15 12:02:43;;;;;;;15.95;6.18;;;9.90;99.90;;;;;;5031437;28;20029;-75
2023/11/15 12:05:13;;;;;;;15.18;6.70;;;9.90;99.90;;;;;;5030320;28;20037;-75
2023/11/15 12:07:50;;;;;;;16.00;7.30;;;10.00;99.90;;;;;;5036158;28;20105;-75
2023/11/15 12:10:18;;;;;;;13.32;6.72;;;9.90;99.90;;;;;;5030494;28;20026;-76
2023/11/15 12:12:54;;;;;;;13.32;6.80;;;9.90;99.90;;;;;;5034016;28;20033;-74
2023/11/15 12:15:27;;;;;;;16.02;7.10;;;10.00;99.90;;;;;;5029322;28;20076;-76
2023/11/15 12:17:54;;;;;;;13.27;6.40;;;10.00;99.90;;;;;;5030119;28;20037;-74
2023/11/15 12:20:33;;;;;;;15.07;6.35;;;10.10;99.90;;;;;;5029475;28;20037;-75
2023/11/15 12:23:08;;;;;;;13.88;6.75;;;10.20;99.90;;;;;;5045105;28;20059;-75
2023/11/15 12:25:45;;;;;;;16.70;7.00;;;10.40;99.90;;;;;;5029734;28;20038;-75
2023/11/15 12:28:12;;;;;;;14.35;7.28;;;10.40;99.90;;;;;;5031447;28;20041;-76
2023/11/15 12:30:38;;;;;;;19.52;8.32;;;10.40;99.90;;;;;;5030419;28;20028;-73
2023/11/15 12:33:04;;;;;;;15.98;8.60;;;10.50;99.90;;;;;;5035590;28;20057;-76
2023/11/15 12:35:31;;;;;;;19.77;8.27;;;10.50;99.90;;;;;;5029236;28;20022;-74
2023/11/15 12:38:04;;;;;;;15.73;8.30;;;10.40;99.90;;;;;;5028869;28;20025;-74
2023/11/15 12:40:30;;;;;;;15.60;8.00;;;10.40;99.90;;;;;;5034236;28;20060;-74
2023/11/15 12:42:56;;;;;;;18.70;8.95;;;10.30;99.90;;;;;;5029317;28;20069;-74
2023/11/15 12:45:34;;;;;;;18.00;8.45;;;10.20;99.90;;;;;;5029321;28;20034;-75
2023/11/15 12:48:07;;;;;;;18.20;8.20;;;10.20;99.90;;;;;;5029199;28;20029;-76
2023/11/15 12:50:37;;;;;;;16.65;7.50;;;10.10;99.90;;;;;;5029682;28;20459;-73
2023/11/15 12:53:27;;;;;;;14.75;6.80;;;10.00;99.90;;;;;;5029852;28;20038;-73
2023/11/15 12:55:53;;;;;;;14.35;7.25;;;10.00;99.90;;;;;;5029529;28;20021;-75